AUA28R EDDV-LOWW
Flight info
| Callsign | AUA28R |
|---|---|
| Flight time | 1h 6m |
| Altitude | 35000 |
| Route | POVEL4F/27L POVEL Y800 TADUV Z21 OSTRA DCT OMELO DCT EVIKU DCT BITSI DCT MIKOV MIKOV8W |
| Aircraft | A320/M-SDE3FGHIRWY/LB1 |
Departure
| Time | 2026-04-26 19:08 |
|---|---|
| Airport | Hannover Airport (EDDV) |
Arrival
| Time | 2026-04-26 20:14 |
|---|---|
| Airport | Vienna International Airport (LOWW) |
| Time | Latitude | Longitude | Altitude | Speed | Heading |
|---|---|---|---|---|---|
| 2026-04-26 18:37 | 52.45840 | 9.69315 | 179 ft | 0 kts | 47° |
| 2026-04-26 18:59 | 52.45830 | 9.69295 | 179 ft | 4 kts | 54° |
| 2026-04-26 18:59 | 52.45816 | 9.69258 | 178 ft | 4 kts | 72° |
| 2026-04-26 19:00 | 52.45813 | 9.69213 | 178 ft | 4 kts | 108° |
| 2026-04-26 19:00 | 52.45823 | 9.69187 | 178 ft | 1 kts | 144° |
| 2026-04-26 19:02 | 52.45822 | 9.69188 | 178 ft | 1 kts | 144° |
| 2026-04-26 19:02 | 52.45806 | 9.69202 | 178 ft | 6 kts | 160° |
| 2026-04-26 19:03 | 52.45706 | 9.69148 | 178 ft | 17 kts | 186° |
| 2026-04-26 19:03 | 52.45621 | 9.69220 | 179 ft | 18 kts | 96° |
| 2026-04-26 19:03 | 52.45613 | 9.69456 | 179 ft | 23 kts | 93° |
| 2026-04-26 19:03 | 52.45605 | 9.69724 | 179 ft | 24 kts | 92° |
| 2026-04-26 19:04 | 52.45598 | 9.70005 | 179 ft | 24 kts | 92° |
| 2026-04-26 19:04 | 52.45590 | 9.70287 | 179 ft | 26 kts | 93° |
| 2026-04-26 19:04 | 52.45581 | 9.70588 | 179 ft | 27 kts | 92° |
| 2026-04-26 19:04 | 52.45576 | 9.70891 | 179 ft | 25 kts | 93° |
| 2026-04-26 19:05 | 52.45534 | 9.71081 | 179 ft | 7 kts | 142° |
| 2026-04-26 19:05 | 52.45504 | 9.71101 | 179 ft | 0 kts | 166° |
| 2026-04-26 19:06 | 52.45499 | 9.71103 | 179 ft | 3 kts | 167° |
| 2026-04-26 19:06 | 52.45460 | 9.71102 | 182 ft | 8 kts | 183° |
| 2026-04-26 19:06 | 52.45412 | 9.71065 | 197 ft | 10 kts | 235° |
| 2026-04-26 19:07 | 52.45408 | 9.70915 | 185 ft | 17 kts | 272° |
| 2026-04-26 19:07 | 52.45420 | 9.70483 | 183 ft | 73 kts | 273° |
| 2026-04-26 19:07 | 52.45453 | 9.69282 | 191 ft | 136 kts | 272° |
| 2026-04-26 19:07 | 52.45504 | 9.67508 | 481 ft | 162 kts | 272° |
| 2026-04-26 19:08 | 52.45534 | 9.65640 | 1194 ft | 164 kts | 273° |
| 2026-04-26 19:08 | 52.45580 | 9.63725 | 1811 ft | 177 kts | 273° |
| 2026-04-26 19:08 | 52.45637 | 9.61561 | 2245 ft | 202 kts | 273° |
| 2026-04-26 19:08 | 52.45698 | 9.59203 | 2929 ft | 214 kts | 273° |
| 2026-04-26 19:09 | 52.45761 | 9.56746 | 3846 ft | 217 kts | 271° |
| 2026-04-26 19:09 | 52.45506 | 9.54316 | 4722 ft | 220 kts | 244° |
| 2026-04-26 19:09 | 52.44520 | 9.52400 | 5569 ft | 225 kts | 215° |
| 2026-04-26 19:09 | 52.43157 | 9.51090 | 6430 ft | 228 kts | 212° |
| 2026-04-26 19:10 | 52.41759 | 9.49788 | 7192 ft | 233 kts | 212° |
| 2026-04-26 19:10 | 52.40334 | 9.48456 | 7953 ft | 237 kts | 213° |
| 2026-04-26 19:10 | 52.38885 | 9.47105 | 8723 ft | 242 kts | 211° |
| 2026-04-26 19:10 | 52.37237 | 9.46337 | 9383 ft | 259 kts | 184° |
| 2026-04-26 19:11 | 52.35400 | 9.46947 | 9748 ft | 285 kts | 152° |
| 2026-04-26 19:11 | 52.33912 | 9.49181 | 10223 ft | 300 kts | 118° |
| 2026-04-26 19:11 | 52.33036 | 9.52379 | 10624 ft | 320 kts | 109° |
| 2026-04-26 19:11 | 52.32209 | 9.55895 | 10892 ft | 343 kts | 108° |
| 2026-04-26 19:12 | 52.31358 | 9.59647 | 11377 ft | 358 kts | 108° |
| 2026-04-26 19:12 | 52.30496 | 9.63439 | 12089 ft | 363 kts | 109° |
| 2026-04-26 19:12 | 52.29599 | 9.67332 | 12848 ft | 368 kts | 109° |
| 2026-04-26 19:12 | 52.28680 | 9.71264 | 13605 ft | 373 kts | 109° |
| 2026-04-26 19:13 | 52.27739 | 9.75246 | 14327 ft | 377 kts | 110° |
| 2026-04-26 19:13 | 52.26783 | 9.79273 | 14985 ft | 382 kts | 110° |
| 2026-04-26 19:13 | 52.25811 | 9.83346 | 15635 ft | 386 kts | 110° |
| 2026-04-26 19:13 | 52.24826 | 9.87459 | 16298 ft | 390 kts | 110° |
| 2026-04-26 19:14 | 52.23834 | 9.91602 | 16951 ft | 395 kts | 110° |
| 2026-04-26 19:14 | 52.22830 | 9.95796 | 17568 ft | 399 kts | 111° |
| 2026-04-26 19:14 | 52.21825 | 10.00004 | 18198 ft | 404 kts | 111° |
| 2026-04-26 19:14 | 52.21480 | 10.01448 | 18414 ft | 405 kts | 111° |
| 2026-04-26 19:15 | 52.19763 | 10.08625 | 19354 ft | 412 kts | 111° |
| 2026-04-26 19:15 | 52.18713 | 10.12996 | 19927 ft | 416 kts | 111° |
| 2026-04-26 19:15 | 52.17998 | 10.15968 | 20306 ft | 418 kts | 111° |
| 2026-04-26 19:15 | 52.16939 | 10.20345 | 20881 ft | 422 kts | 111° |
| 2026-04-26 19:16 | 52.15856 | 10.24814 | 21438 ft | 426 kts | 111° |
| 2026-04-26 19:16 | 52.14761 | 10.29321 | 21985 ft | 429 kts | 111° |
| 2026-04-26 19:16 | 52.13654 | 10.33872 | 22524 ft | 433 kts | 111° |
| 2026-04-26 19:16 | 52.12539 | 10.38450 | 23050 ft | 437 kts | 111° |
| 2026-04-26 19:17 | 52.11409 | 10.43070 | 23262 ft | 439 kts | 111° |
| 2026-04-26 19:17 | 52.10275 | 10.47701 | 23299 ft | 440 kts | 111° |
| 2026-04-26 19:17 | 52.09149 | 10.52280 | 23296 ft | 439 kts | 111° |
| 2026-04-26 19:17 | 52.08014 | 10.56887 | 23295 ft | 439 kts | 111° |
| 2026-04-26 19:18 | 52.06875 | 10.61505 | 23302 ft | 440 kts | 111° |
| 2026-04-26 19:18 | 52.05728 | 10.66146 | 23781 ft | 443 kts | 111° |
| 2026-04-26 19:18 | 52.04573 | 10.70824 | 24225 ft | 446 kts | 111° |
| 2026-04-26 19:18 | 52.03409 | 10.75531 | 24655 ft | 449 kts | 111° |
| 2026-04-26 19:19 | 52.02253 | 10.80192 | 25053 ft | 451 kts | 111° |
| 2026-04-26 19:19 | 52.01070 | 10.84949 | 25475 ft | 453 kts | 111° |
| 2026-04-26 19:19 | 51.99887 | 10.89703 | 25872 ft | 456 kts | 111° |
| 2026-04-26 19:19 | 51.98689 | 10.94498 | 26251 ft | 459 kts | 111° |
| 2026-04-26 19:20 | 51.97484 | 10.99310 | 26636 ft | 461 kts | 111° |
| 2026-04-26 19:20 | 51.96683 | 11.02508 | 26889 ft | 463 kts | 111° |
| 2026-04-26 19:20 | 51.95062 | 11.08962 | 27373 ft | 466 kts | 111° |
| 2026-04-26 19:20 | 51.93828 | 11.13847 | 27727 ft | 469 kts | 111° |
| 2026-04-26 19:21 | 51.92585 | 11.18752 | 28080 ft | 472 kts | 111° |
| 2026-04-26 19:21 | 51.91335 | 11.23684 | 28422 ft | 474 kts | 111° |
| 2026-04-26 19:21 | 51.90077 | 11.28641 | 28788 ft | 477 kts | 111° |
| 2026-04-26 19:21 | 51.88814 | 11.33600 | 29096 ft | 479 kts | 111° |
| 2026-04-26 19:22 | 51.87535 | 11.38609 | 29405 ft | 481 kts | 111° |
| 2026-04-26 19:22 | 51.86261 | 11.43605 | 29710 ft | 484 kts | 111° |
| 2026-04-26 19:22 | 51.84973 | 11.48649 | 29999 ft | 486 kts | 111° |
| 2026-04-26 19:22 | 51.83672 | 11.53728 | 30286 ft | 488 kts | 111° |
| 2026-04-26 19:23 | 51.82325 | 11.58796 | 30523 ft | 490 kts | 115° |
| 2026-04-26 19:23 | 51.80634 | 11.63590 | 30736 ft | 493 kts | 123° |
| 2026-04-26 19:23 | 51.78741 | 11.68212 | 30970 ft | 493 kts | 123° |
| 2026-04-26 19:23 | 51.76864 | 11.72800 | 31269 ft | 493 kts | 123° |
| 2026-04-26 19:24 | 51.74982 | 11.77419 | 31591 ft | 491 kts | 123° |
| 2026-04-26 19:24 | 51.73102 | 11.82039 | 31899 ft | 491 kts | 123° |
| 2026-04-26 19:24 | 51.69355 | 11.91237 | 32519 ft | 489 kts | 124° |
| 2026-04-26 19:25 | 51.67479 | 11.95822 | 32834 ft | 489 kts | 124° |
| 2026-04-26 19:25 | 51.66237 | 11.98848 | 33023 ft | 488 kts | 124° |
| 2026-04-26 19:25 | 51.63744 | 12.04895 | 33445 ft | 487 kts | 124° |
| 2026-04-26 19:25 | 51.61867 | 12.09440 | 33754 ft | 486 kts | 124° |
| 2026-04-26 19:26 | 51.59994 | 12.13973 | 34086 ft | 486 kts | 124° |
| 2026-04-26 19:26 | 51.58138 | 12.18459 | 34367 ft | 486 kts | 124° |
| 2026-04-26 19:26 | 51.56255 | 12.22999 | 34594 ft | 486 kts | 124° |
| 2026-04-26 19:26 | 51.54380 | 12.27524 | 34860 ft | 486 kts | 124° |
| 2026-04-26 19:27 | 51.52526 | 12.31998 | 35108 ft | 485 kts | 124° |
| 2026-04-26 19:27 | 51.50650 | 12.36513 | 35271 ft | 486 kts | 124° |
| 2026-04-26 19:27 | 51.46887 | 12.45540 | 35302 ft | 484 kts | 124° |
| 2026-04-26 19:28 | 51.43144 | 12.54463 | 35304 ft | 484 kts | 124° |
| 2026-04-26 19:28 | 51.39489 | 12.63547 | 35303 ft | 484 kts | 122° |
| 2026-04-26 19:29 | 51.36002 | 12.72694 | 35306 ft | 484 kts | 121° |
| 2026-04-26 19:29 | 51.32480 | 12.81894 | 35309 ft | 487 kts | 122° |
| 2026-04-26 19:30 | 51.28847 | 12.91175 | 35306 ft | 496 kts | 123° |
| 2026-04-26 19:30 | 51.25731 | 12.98921 | 35308 ft | 497 kts | 123° |
| 2026-04-26 19:31 | 51.21323 | 13.09661 | 35308 ft | 497 kts | 124° |
| 2026-04-26 19:31 | 51.17553 | 13.18834 | 35309 ft | 497 kts | 124° |
| 2026-04-26 19:32 | 51.13770 | 13.28061 | 35307 ft | 497 kts | 123° |
| 2026-04-26 19:32 | 51.09977 | 13.37310 | 35308 ft | 497 kts | 124° |
| 2026-04-26 19:33 | 51.06179 | 13.46523 | 35312 ft | 498 kts | 124° |
| 2026-04-26 19:33 | 51.02383 | 13.55684 | 35309 ft | 498 kts | 124° |
| 2026-04-26 19:34 | 50.98557 | 13.64876 | 35307 ft | 497 kts | 124° |
| 2026-04-26 19:34 | 50.94768 | 13.73946 | 35309 ft | 493 kts | 124° |
| 2026-04-26 19:35 | 50.90973 | 13.83023 | 35307 ft | 493 kts | 124° |
| 2026-04-26 19:35 | 50.87179 | 13.92046 | 35309 ft | 493 kts | 124° |
| 2026-04-26 19:36 | 50.83890 | 13.99477 | 35304 ft | 492 kts | 131° |
| 2026-04-26 19:36 | 50.78164 | 14.08218 | 35308 ft | 491 kts | 139° |
| 2026-04-26 19:37 | 50.73113 | 14.15497 | 35314 ft | 491 kts | 139° |
| 2026-04-26 19:37 | 50.68086 | 14.22741 | 35308 ft | 491 kts | 139° |
| 2026-04-26 19:38 | 50.63034 | 14.29990 | 35313 ft | 490 kts | 139° |
| 2026-04-26 19:38 | 50.58001 | 14.37184 | 35315 ft | 490 kts | 139° |
| 2026-04-26 19:39 | 50.52944 | 14.44391 | 35308 ft | 489 kts | 139° |
| 2026-04-26 19:39 | 50.47922 | 14.51530 | 35312 ft | 489 kts | 139° |
| 2026-04-26 19:40 | 50.42909 | 14.58764 | 35299 ft | 489 kts | 137° |
| 2026-04-26 19:40 | 50.38038 | 14.66219 | 35286 ft | 489 kts | 136° |
| 2026-04-26 19:41 | 50.33181 | 14.73701 | 35290 ft | 489 kts | 136° |
| 2026-04-26 19:41 | 50.29120 | 14.79876 | 35293 ft | 489 kts | 137° |
| 2026-04-26 19:42 | 50.23381 | 14.88509 | 35302 ft | 490 kts | 137° |
| 2026-04-26 19:42 | 50.18447 | 14.95872 | 35297 ft | 491 kts | 137° |
| 2026-04-26 19:43 | 50.13509 | 15.03225 | 35299 ft | 491 kts | 137° |
| 2026-04-26 19:43 | 50.08571 | 15.10577 | 35298 ft | 491 kts | 137° |
| 2026-04-26 19:44 | 50.03634 | 15.17918 | 35290 ft | 491 kts | 137° |
| 2026-04-26 19:44 | 49.98697 | 15.25248 | 35281 ft | 491 kts | 137° |
| 2026-04-26 19:45 | 49.93744 | 15.32570 | 35268 ft | 492 kts | 137° |
| 2026-04-26 19:45 | 49.88771 | 15.39890 | 35268 ft | 492 kts | 137° |
| 2026-04-26 19:46 | 49.83829 | 15.47150 | 35253 ft | 493 kts | 137° |
| 2026-04-26 19:46 | 49.78837 | 15.54450 | 35272 ft | 493 kts | 138° |
| 2026-04-26 19:47 | 49.74662 | 15.60543 | 35275 ft | 493 kts | 138° |
| 2026-04-26 19:47 | 49.68849 | 15.68997 | 35275 ft | 494 kts | 138° |
| 2026-04-26 19:48 | 49.63844 | 15.76272 | 35278 ft | 494 kts | 138° |
| 2026-04-26 19:48 | 49.58840 | 15.83519 | 35279 ft | 494 kts | 138° |
| 2026-04-26 19:49 | 49.53820 | 15.90755 | 35265 ft | 494 kts | 139° |
| 2026-04-26 19:49 | 49.48823 | 15.97929 | 35263 ft | 494 kts | 139° |
| 2026-04-26 19:50 | 49.43790 | 16.05142 | 35265 ft | 493 kts | 139° |
| 2026-04-26 19:50 | 49.41292 | 16.08723 | 34581 ft | 491 kts | 139° |
| 2026-04-26 19:50 | 49.38782 | 16.12315 | 33396 ft | 495 kts | 139° |
| 2026-04-26 19:51 | 49.36254 | 16.15922 | 32217 ft | 498 kts | 139° |
| 2026-04-26 19:51 | 49.33708 | 16.19544 | 31016 ft | 501 kts | 139° |
| 2026-04-26 19:51 | 49.31020 | 16.22950 | 29847 ft | 500 kts | 148° |
| 2026-04-26 19:51 | 49.28062 | 16.25674 | 28747 ft | 494 kts | 157° |
| 2026-04-26 19:52 | 49.25026 | 16.27920 | 27795 ft | 488 kts | 157° |
| 2026-04-26 19:52 | 49.21986 | 16.30170 | 26981 ft | 482 kts | 157° |
| 2026-04-26 19:52 | 49.18986 | 16.32398 | 26219 ft | 476 kts | 157° |
| 2026-04-26 19:52 | 49.16019 | 16.34598 | 25458 ft | 470 kts | 157° |
| 2026-04-26 19:53 | 49.13086 | 16.36768 | 24741 ft | 465 kts | 157° |
| 2026-04-26 19:53 | 49.10186 | 16.38909 | 24050 ft | 460 kts | 157° |
| 2026-04-26 19:53 | 49.07315 | 16.41028 | 23287 ft | 455 kts | 157° |
| 2026-04-26 19:53 | 49.04475 | 16.43122 | 22463 ft | 452 kts | 156° |
| 2026-04-26 19:54 | 49.01661 | 16.45193 | 21905 ft | 445 kts | 156° |
| 2026-04-26 19:54 | 48.98898 | 16.47221 | 21294 ft | 438 kts | 156° |
| 2026-04-26 19:54 | 48.96146 | 16.49232 | 20588 ft | 437 kts | 156° |
| 2026-04-26 19:54 | 48.93439 | 16.51203 | 20325 ft | 425 kts | 156° |
| 2026-04-26 19:55 | 48.90792 | 16.53134 | 20238 ft | 418 kts | 156° |
| 2026-04-26 19:55 | 48.88201 | 16.55025 | 20224 ft | 417 kts | 156° |
| 2026-04-26 19:55 | 48.85567 | 16.56940 | 19334 ft | 424 kts | 156° |
| 2026-04-26 19:55 | 48.82877 | 16.58891 | 18512 ft | 429 kts | 156° |
| 2026-04-26 19:56 | 48.80182 | 16.60845 | 17807 ft | 428 kts | 156° |
| 2026-04-26 19:56 | 48.77450 | 16.62409 | 17209 ft | 421 kts | 167° |
| 2026-04-26 19:56 | 48.74597 | 16.63394 | 16598 ft | 417 kts | 170° |
| 2026-04-26 19:56 | 48.71774 | 16.64325 | 16025 ft | 413 kts | 170° |
| 2026-04-26 19:57 | 48.68965 | 16.65245 | 15460 ft | 409 kts | 170° |
| 2026-04-26 19:57 | 48.66211 | 16.66143 | 14905 ft | 406 kts | 170° |
| 2026-04-26 19:57 | 48.63461 | 16.67043 | 14341 ft | 403 kts | 170° |
| 2026-04-26 19:57 | 48.60732 | 16.67938 | 13749 ft | 400 kts | 170° |
| 2026-04-26 19:58 | 48.58037 | 16.68678 | 13488 ft | 385 kts | 177° |
| 2026-04-26 19:58 | 48.55417 | 16.68724 | 13191 ft | 371 kts | 188° |
| 2026-04-26 19:58 | 48.52865 | 16.68330 | 12697 ft | 366 kts | 189° |
| 2026-04-26 19:58 | 48.50344 | 16.67933 | 12244 ft | 362 kts | 189° |
| 2026-04-26 19:59 | 48.47823 | 16.67535 | 12240 ft | 382 kts | 189° |
| 2026-04-26 19:59 | 48.45091 | 16.67102 | 12242 ft | 400 kts | 189° |
| 2026-04-26 19:59 | 48.42307 | 16.66668 | 12243 ft | 404 kts | 188° |
| 2026-04-26 19:59 | 48.39503 | 16.66240 | 12247 ft | 404 kts | 188° |
| 2026-04-26 20:00 | 48.37652 | 16.65960 | 12247 ft | 405 kts | 188° |
| 2026-04-26 20:00 | 48.34850 | 16.65542 | 12244 ft | 400 kts | 188° |
| 2026-04-26 20:00 | 48.31310 | 16.65024 | 12152 ft | 373 kts | 188° |
| 2026-04-26 20:00 | 48.28755 | 16.64648 | 11860 ft | 364 kts | 189° |
| 2026-04-26 20:01 | 48.27089 | 16.64400 | 11681 ft | 361 kts | 189° |
| 2026-04-26 20:01 | 48.24600 | 16.64022 | 11400 ft | 359 kts | 189° |
| 2026-04-26 20:01 | 48.22100 | 16.63998 | 11114 ft | 361 kts | 175° |
| 2026-04-26 20:01 | 48.18987 | 16.65638 | 10834 ft | 353 kts | 150° |
| 2026-04-26 20:02 | 48.17698 | 16.67075 | 10756 ft | 345 kts | 138° |
| 2026-04-26 20:02 | 48.16199 | 16.69779 | 10635 ft | 332 kts | 121° |
| 2026-04-26 20:02 | 48.15164 | 16.72800 | 10503 ft | 320 kts | 115° |
| 2026-04-26 20:02 | 48.14518 | 16.74768 | 10340 ft | 316 kts | 115° |
| 2026-04-26 20:03 | 48.13225 | 16.78685 | 9868 ft | 312 kts | 115° |
| 2026-04-26 20:03 | 48.12263 | 16.81587 | 9471 ft | 310 kts | 116° |
| 2026-04-26 20:03 | 48.11303 | 16.84473 | 9073 ft | 308 kts | 116° |
| 2026-04-26 20:03 | 48.10347 | 16.87341 | 8670 ft | 307 kts | 116° |
| 2026-04-26 20:04 | 48.09409 | 16.90151 | 8310 ft | 304 kts | 116° |
| 2026-04-26 20:04 | 48.08483 | 16.92922 | 8182 ft | 291 kts | 116° |
| 2026-04-26 20:04 | 48.07588 | 16.95599 | 7976 ft | 283 kts | 116° |
| 2026-04-26 20:04 | 48.06711 | 16.98226 | 7635 ft | 280 kts | 116° |
| 2026-04-26 20:05 | 48.05854 | 17.00797 | 7279 ft | 279 kts | 116° |
| 2026-04-26 20:05 | 48.04990 | 17.03389 | 6923 ft | 277 kts | 116° |
| 2026-04-26 20:05 | 48.04112 | 17.05953 | 6608 ft | 273 kts | 121° |
| 2026-04-26 20:05 | 48.02894 | 17.08035 | 6413 ft | 263 kts | 145° |
| 2026-04-26 20:06 | 48.01276 | 17.09163 | 6105 ft | 253 kts | 173° |
| 2026-04-26 20:06 | 47.99566 | 17.09005 | 5772 ft | 244 kts | 200° |
| 2026-04-26 20:06 | 47.98095 | 17.07883 | 5405 ft | 238 kts | 222° |
| 2026-04-26 20:06 | 47.97031 | 17.06040 | 5057 ft | 233 kts | 245° |
| 2026-04-26 20:07 | 47.96527 | 17.03771 | 5003 ft | 230 kts | 266° |
| 2026-04-26 20:07 | 47.96600 | 17.01401 | 5002 ft | 229 kts | 287° |
| 2026-04-26 20:07 | 47.97191 | 16.99218 | 5001 ft | 227 kts | 298° |
| 2026-04-26 20:07 | 47.97888 | 16.97129 | 5000 ft | 228 kts | 298° |
| 2026-04-26 20:08 | 47.98595 | 16.95004 | 5007 ft | 228 kts | 298° |
| 2026-04-26 20:08 | 47.99297 | 16.92885 | 5004 ft | 228 kts | 298° |
| 2026-04-26 20:08 | 47.99997 | 16.90769 | 5007 ft | 226 kts | 298° |
| 2026-04-26 20:08 | 48.00666 | 16.88740 | 4995 ft | 210 kts | 298° |
| 2026-04-26 20:09 | 48.01292 | 16.86841 | 4902 ft | 197 kts | 298° |
| 2026-04-26 20:09 | 48.01880 | 16.85061 | 4654 ft | 190 kts | 299° |
| 2026-04-26 20:09 | 48.02456 | 16.83314 | 4400 ft | 184 kts | 299° |
| 2026-04-26 20:09 | 48.03012 | 16.81628 | 4160 ft | 179 kts | 299° |
| 2026-04-26 20:10 | 48.03554 | 16.79983 | 3911 ft | 174 kts | 299° |
| 2026-04-26 20:10 | 48.04083 | 16.78377 | 3685 ft | 171 kts | 299° |
| 2026-04-26 20:10 | 48.04602 | 16.76798 | 3458 ft | 168 kts | 300° |
| 2026-04-26 20:10 | 48.05109 | 16.75258 | 3233 ft | 167 kts | 300° |
| 2026-04-26 20:11 | 48.05621 | 16.73699 | 3002 ft | 167 kts | 300° |
| 2026-04-26 20:11 | 48.06134 | 16.72138 | 2781 ft | 166 kts | 300° |
| 2026-04-26 20:11 | 48.06645 | 16.70581 | 2546 ft | 164 kts | 300° |
| 2026-04-26 20:12 | 48.07592 | 16.67689 | 2127 ft | 149 kts | 300° |
| 2026-04-26 20:12 | 48.08041 | 16.66317 | 1926 ft | 145 kts | 300° |
| 2026-04-26 20:12 | 48.08477 | 16.64985 | 1755 ft | 141 kts | 300° |
| 2026-04-26 20:12 | 48.08904 | 16.63683 | 1546 ft | 138 kts | 300° |
| 2026-04-26 20:13 | 48.09323 | 16.62404 | 1364 ft | 136 kts | 299° |
| 2026-04-26 20:13 | 48.09730 | 16.61141 | 1180 ft | 134 kts | 297° |
| 2026-04-26 20:13 | 48.10133 | 16.59892 | 992 ft | 133 kts | 298° |
| 2026-04-26 20:13 | 48.10543 | 16.58658 | 800 ft | 132 kts | 297° |
| 2026-04-26 20:14 | 48.10948 | 16.57429 | 635 ft | 131 kts | 298° |
| 2026-04-26 20:14 | 48.11296 | 16.56374 | 615 ft | 83 kts | 296° |
| 2026-04-26 20:14 | 48.11465 | 16.55854 | 618 ft | 47 kts | 296° |
| 2026-04-26 20:14 | 48.11575 | 16.55520 | 618 ft | 18 kts | 296° |
| 2026-04-26 20:15 | 48.11653 | 16.55358 | 619 ft | 21 kts | 315° |
| 2026-04-26 20:15 | 48.11761 | 16.55198 | 614 ft | 23 kts | 315° |
| 2026-04-26 20:15 | 48.11877 | 16.55163 | 609 ft | 13 kts | 41° |
| 2026-04-26 20:15 | 48.11873 | 16.55231 | 620 ft | 7 kts | 112° |
| 2026-04-26 20:16 | 48.11839 | 16.55340 | 617 ft | 16 kts | 117° |
| 2026-04-26 20:16 | 48.11790 | 16.55492 | 610 ft | 17 kts | 116° |
| 2026-04-26 20:16 | 48.11738 | 16.55651 | 617 ft | 17 kts | 116° |
| 2026-04-26 20:16 | 48.11682 | 16.55819 | 613 ft | 19 kts | 116° |
| 2026-04-26 20:17 | 48.11622 | 16.56010 | 617 ft | 21 kts | 115° |
| 2026-04-26 20:17 | 48.11552 | 16.56222 | 619 ft | 24 kts | 117° |
| 2026-04-26 20:17 | 48.11476 | 16.56457 | 617 ft | 26 kts | 116° |
| 2026-04-26 20:17 | 48.11421 | 16.56624 | 614 ft | 28 kts | 116° |
| 2026-04-26 20:18 | 48.11308 | 16.56973 | 613 ft | 20 kts | 116° |
| 2026-04-26 20:18 | 48.11243 | 16.57171 | 610 ft | 22 kts | 116° |
| 2026-04-26 20:18 | 48.11284 | 16.57309 | 611 ft | 18 kts | 26° |
| 2026-04-26 20:18 | 48.11402 | 16.57397 | 621 ft | 20 kts | 26° |
| 2026-04-26 20:19 | 48.11541 | 16.57456 | 622 ft | 22 kts | 350° |
| 2026-04-26 20:19 | 48.11695 | 16.57396 | 618 ft | 23 kts | 344° |
| 2026-04-26 20:19 | 48.11831 | 16.57286 | 617 ft | 24 kts | 301° |
| 2026-04-26 20:19 | 48.11906 | 16.57054 | 616 ft | 26 kts | 297° |
| 2026-04-26 20:20 | 48.11984 | 16.56818 | 614 ft | 17 kts | 297° |
| 2026-04-26 20:20 | 48.11954 | 16.56741 | 610 ft | 10 kts | 206° |
| 2026-04-26 20:20 | 48.11918 | 16.56715 | 621 ft | 0 kts | 206° |